createdAt,value
2017-08-21T00:00:02.835Z,86.96
2017-08-21T00:05:05.742Z,86.87
2017-08-21T00:10:03.301Z,86.39
2017-08-21T00:15:02.845Z,86.2
2017-08-21T00:20:03.462Z,85.91
2017-08-21T00:25:02.877Z,86.01
2017-08-21T00:30:03.481Z,85.53
2017-08-21T00:35:02.935Z,85.05
2017-08-21T00:40:03.503Z,85.25
2017-08-21T00:45:03.012Z,85.15
2017-08-21T00:50:03.428Z,84.96
2017-08-21T00:55:02.862Z,85.25
2017-08-21T01:00:03.482Z,85.05
2017-08-21T01:05:02.993Z,84.86
2017-08-21T01:10:03.471Z,84.77
2017-08-21T01:15:02.861Z,84.58
2017-08-21T01:20:03.319Z,84.58
2017-08-21T01:25:02.744Z,84.39
2017-08-21T01:30:03.164Z,84.29
2017-08-21T01:35:02.708Z,83.96
2017-08-21T01:40:03.173Z,83.67
2017-08-21T01:45:03.638Z,83.58
2017-08-21T01:50:03.008Z,83.48
2017-08-21T01:55:03.577Z,83.29
2017-08-21T02:00:03.084Z,83.2
2017-08-21T02:05:03.626Z,83.01
2017-08-21T02:10:03.023Z,82.82
2017-08-21T02:15:03.569Z,82.72
2017-08-21T02:20:03.097Z,82.2
2017-08-21T02:25:03.572Z,81.92
2017-08-21T02:30:03.076Z,81.92
2017-08-21T02:35:03.595Z,81.06
2017-08-21T02:40:03.205Z,80.68
2017-08-21T02:45:02.743Z,80.01
2017-08-21T02:50:03.362Z,79.35
2017-08-21T02:55:02.927Z,78.35
2017-08-21T03:00:03.529Z,77.87
2017-08-21T03:05:03.014Z,77.69
2017-08-21T03:10:03.610Z,77.3
2017-08-21T03:15:04.192Z,77.11
2017-08-21T03:20:03.615Z,76.73
2017-08-21T03:25:03.164Z,76.44
2017-08-21T03:30:03.676Z,76.35
2017-08-21T03:35:03.249Z,76.25
2017-08-21T03:40:02.792Z,76.06
2017-08-21T03:45:03.219Z,75.78
2017-08-21T03:50:02.763Z,75.68
2017-08-21T03:55:03.375Z,75.78
2017-08-21T04:00:02.900Z,75.49
2017-08-21T04:05:03.509Z,74.73
2017-08-21T04:10:03.055Z,74.44
2017-08-21T04:15:04.422Z,74.16
2017-08-21T04:20:02.795Z,74.16
2017-08-21T04:25:03.333Z,74.06
2017-08-21T04:30:02.913Z,74.29
2017-08-21T04:35:03.467Z,74.19
2017-08-21T04:40:03.026Z,74.19
2017-08-21T04:45:03.637Z,74.29
2017-08-21T04:50:03.213Z,74.38
2017-08-21T04:55:03.557Z,74.38
2017-08-21T05:00:03.071Z,74.57
2017-08-21T05:05:03.539Z,75.05
2017-08-21T05:10:03.152Z,75.34
2017-08-21T05:15:03.500Z,75.81
2017-08-21T05:20:02.937Z,76.14
2017-08-21T05:25:03.535Z,76.33
2017-08-21T05:30:03.136Z,76.52
2017-08-21T05:35:02.722Z,76.52
2017-08-21T05:40:03.353Z,76.81
2017-08-21T05:45:02.820Z,77.09
2017-08-21T05:50:03.275Z,77.13
2017-08-21T05:55:02.793Z,77.23
2017-08-21T06:00:03.297Z,77.7
2017-08-21T06:05:02.719Z,79.65
2017-08-21T06:10:03.273Z,79.27
2017-08-21T06:15:02.742Z,79.36
2017-08-21T06:20:03.329Z,81.51
2017-08-21T06:25:02.846Z,81.6
2017-08-21T06:30:03.404Z,82.22
2017-08-21T06:35:02.839Z,84.84
2017-08-21T06:40:03.314Z,88.76
2017-08-21T06:45:02.891Z,90.82
2017-08-21T06:50:03.462Z,91.2
2017-08-21T06:55:02.888Z,89.67
2017-08-21T07:00:03.401Z,91.77
2017-08-21T07:05:02.772Z,93.54
2017-08-21T07:10:03.259Z,96.32
2017-08-21T07:15:02.910Z,96.99
2017-08-21T07:20:03.372Z,97.56
2017-08-21T07:25:02.852Z,98.72
2017-08-21T07:30:03.327Z,97.8
2017-08-21T07:35:02.982Z,97.33
2017-08-21T07:40:03.499Z,96.99
2017-08-21T07:45:03.028Z,95.98
2017-08-21T07:50:03.615Z,96.7
2017-08-21T07:55:03.185Z,99.99
2017-08-21T08:00:03.583Z,99.99
2017-08-21T08:05:02.971Z,99.99
2017-08-21T08:10:03.458Z,99.99
2017-08-21T08:15:03.032Z,99.99
2017-08-21T08:20:03.576Z,99.99
2017-08-21T08:30:02.815Z,99.99
2017-08-21T08:35:03.361Z,99.99
2017-08-21T08:40:03.009Z,99.99
2017-08-21T08:45:03.455Z,99.99
2017-08-21T08:50:02.910Z,99.99
2017-08-21T08:55:03.366Z,99.99
2017-08-21T09:00:02.901Z,99.99
2017-08-21T09:05:03.385Z,99.99
2017-08-21T09:10:02.832Z,99.99
2017-08-21T09:15:03.377Z,99.99
2017-08-21T09:20:02.866Z,99.99
2017-08-21T09:25:03.444Z,99.99
2017-08-21T09:30:02.862Z,99.99
2017-08-21T09:35:03.390Z,94.37
2017-08-21T09:40:02.816Z,93.79
2017-08-21T09:45:03.322Z,85.54
2017-08-21T09:50:02.940Z,83.37
2017-08-21T09:55:03.495Z,82.47
2017-08-21T10:00:02.933Z,85.72
2017-08-21T10:05:03.521Z,83.03
2017-08-21T10:10:03.192Z,84.97
2017-08-21T10:15:03.653Z,85.87
2017-08-21T10:20:03.043Z,82.76
2017-08-21T10:25:03.692Z,83.05
2017-08-21T10:30:03.390Z,80.26
2017-08-21T10:35:02.949Z,82.68
2017-08-21T10:40:03.442Z,83.88
2017-08-21T10:45:02.901Z,80.3
2017-08-21T10:50:03.483Z,81.37
2017-08-21T10:55:02.926Z,78.64
2017-08-21T11:00:03.344Z,74.99
2017-08-21T11:05:02.776Z,76.24
2017-08-21T11:10:03.275Z,78.81
2017-08-21T11:15:02.728Z,79.2
2017-08-21T11:20:03.234Z,78.17
2017-08-21T11:25:03.713Z,77.01
2017-08-21T11:30:03.174Z,77.42
2017-08-21T11:35:03.608Z,78.91
2017-08-21T11:40:03.224Z,79.78
2017-08-21T11:45:03.662Z,77.84
2017-08-21T11:50:03.169Z,80.51
2017-08-21T11:55:02.774Z,80.74
2017-08-21T12:00:03.187Z,79.47
2017-08-21T12:05:02.862Z,75.79
2017-08-21T12:10:03.503Z,75.6
2017-08-21T12:15:03.058Z,73.48
2017-08-21T12:20:03.688Z,74.19
2017-08-21T12:25:03.268Z,71.06
2017-08-21T12:30:02.746Z,73.11
2017-08-21T12:35:03.285Z,72.83
2017-08-21T12:40:02.831Z,69.73
2017-08-21T12:45:03.217Z,70.79
2017-08-21T12:50:03.679Z,72.5
2017-08-21T12:55:03.148Z,74.11
2017-08-21T13:00:03.585Z,73.57
2017-08-21T13:05:03.206Z,73.24
2017-08-21T13:10:02.692Z,74.55
2017-08-21T13:15:03.239Z,74.79
2017-08-21T13:20:02.734Z,74.21
2017-08-21T13:25:03.296Z,74.69
2017-08-21T13:30:03.705Z,73.91
2017-08-21T13:35:03.257Z,74.9
2017-08-21T13:40:02.850Z,76.47
2017-08-21T13:45:03.549Z,77.44
2017-08-21T13:50:03.045Z,77.09
2017-08-21T13:55:03.509Z,76.45
2017-08-21T14:00:02.993Z,77.03
2017-08-21T14:05:03.529Z,76.51
2017-08-21T14:10:03.076Z,76.06
2017-08-21T14:15:03.510Z,75.06
2017-08-21T14:20:03.002Z,76.7
2017-08-21T14:25:03.437Z,75.33
2017-08-21T14:30:02.844Z,74.69
2017-08-21T14:35:03.434Z,74.01
2017-08-21T14:40:02.982Z,74.79
2017-08-21T14:45:03.389Z,73.5
2017-08-21T14:50:02.950Z,72.96
2017-08-21T14:55:03.435Z,71.8
2017-08-21T15:00:02.946Z,72.28
2017-08-21T15:05:03.315Z,73.1
2017-08-21T15:10:02.774Z,73.49
2017-08-21T15:15:03.286Z,73.33
2017-08-21T15:20:02.826Z,73.33
2017-08-21T15:25:03.416Z,73.08
2017-08-21T15:30:02.905Z,72.89
2017-08-21T15:35:03.458Z,72.5
2017-08-21T15:40:03.019Z,72.21
2017-08-21T15:45:03.419Z,72.6
2017-08-21T15:50:02.885Z,74.49
2017-08-21T15:55:03.344Z,75.33
2017-08-21T16:00:02.814Z,74.52
2017-08-21T16:05:03.290Z,75.2
2017-08-21T16:10:02.971Z,74.32
2017-08-21T16:15:03.515Z,75
2017-08-21T16:20:03.178Z,75.78
2017-08-21T16:25:03.694Z,76.12
2017-08-21T16:30:03.411Z,75.93
2017-08-21T16:35:03.025Z,75.74
2017-08-21T16:40:03.543Z,75.54
2017-08-21T16:45:03.162Z,75.35
2017-08-21T16:50:03.619Z,76.42
2017-08-21T16:55:03.151Z,75.93
2017-08-21T17:00:03.694Z,75.22
2017-08-21T17:05:03.172Z,76.18
2017-08-21T17:10:02.714Z,79.33
2017-08-21T17:15:03.203Z,80.49
2017-08-21T17:20:02.720Z,81.07
2017-08-21T17:25:03.143Z,82.28
2017-08-21T17:30:03.687Z,82.67
2017-08-21T17:35:03.108Z,82.82
2017-08-21T17:40:03.698Z,83.5
2017-08-21T17:45:03.146Z,84.65
2017-08-21T17:50:03.570Z,85.28
2017-08-21T17:55:03.137Z,87.4
2017-08-21T18:00:03.674Z,89.86
2017-08-21T18:05:03.112Z,90.73
2017-08-21T18:10:02.763Z,90.73
2017-08-21T18:15:03.241Z,91.75
2017-08-21T18:20:03.678Z,94.97
2017-08-21T18:25:03.221Z,99.99
2017-08-21T18:30:03.653Z,99.99
2017-08-21T18:35:03.250Z,99.99
2017-08-21T18:40:02.906Z,99.99
2017-08-21T18:45:03.447Z,99.99
2017-08-21T18:50:02.994Z,99.99
2017-08-21T18:55:03.598Z,99.99
2017-08-21T19:00:02.993Z,99.99
2017-08-21T19:05:03.511Z,99.99
2017-08-21T19:10:03.107Z,99.99
2017-08-21T19:15:03.522Z,99.99
2017-08-21T19:20:02.973Z,99.99
2017-08-21T19:25:03.413Z,99.99
2017-08-21T19:30:02.888Z,99.99
2017-08-21T19:35:03.460Z,99.99
2017-08-21T19:40:03.004Z,99.99
2017-08-21T19:45:03.570Z,99.99
2017-08-21T19:50:03.089Z,99.99
2017-08-21T19:55:03.532Z,99.99
2017-08-21T20:00:02.937Z,99.99
2017-08-21T20:05:03.424Z,99.99
2017-08-21T20:10:02.915Z,99.91
2017-08-21T20:15:03.467Z,99.19
2017-08-21T20:20:02.971Z,98.81
2017-08-21T20:25:03.392Z,98.33
2017-08-21T20:30:02.896Z,98.05
2017-08-21T20:35:03.319Z,97.33
2017-08-21T20:40:02.776Z,97.23
2017-08-21T20:45:03.218Z,96.66
2017-08-21T20:50:03.663Z,96.32
2017-08-21T20:55:03.122Z,95.65
2017-08-21T21:00:03.863Z,95.07
2017-08-21T21:05:03.381Z,94.89
2017-08-21T21:10:02.808Z,94.6
2017-08-21T21:15:03.243Z,93.98
2017-08-21T21:20:02.786Z,93.5
2017-08-21T21:25:03.377Z,93.21
2017-08-21T21:30:02.761Z,92.83
2017-08-21T21:35:03.191Z,92.35
2017-08-21T21:40:02.789Z,91.77
2017-08-21T21:45:03.311Z,91.3
2017-08-21T21:50:02.779Z,90.82
2017-08-21T21:55:03.349Z,90.58
2017-08-21T22:00:02.916Z,90.1
2017-08-21T22:05:03.472Z,89.72
2017-08-21T22:10:03.037Z,89.72
2017-08-21T22:15:03.542Z,90.01
2017-08-21T22:20:02.964Z,89.72
2017-08-21T22:25:03.441Z,89.43
2017-08-21T22:30:03.017Z,89.05
2017-08-21T22:35:03.436Z,88.53
2017-08-21T22:40:02.964Z,88.24
2017-08-21T22:45:03.469Z,87.09
2017-08-21T22:50:02.876Z,86.71
2017-08-21T22:55:03.436Z,86.23
2017-08-21T23:00:03.200Z,85.85
2017-08-21T23:05:02.761Z,85.38
2017-08-21T23:10:03.220Z,85.09
2017-08-21T23:15:03.637Z,84.7
2017-08-21T23:20:03.249Z,84.52
2017-08-21T23:25:02.966Z,83.99
2017-08-21T23:30:03.475Z,83.61
2017-08-21T23:35:02.992Z,83.13
2017-08-21T23:40:03.428Z,82.75
2017-08-21T23:45:02.972Z,82.46
2017-08-21T23:50:03.616Z,81.89
2017-08-21T23:55:03.077Z,81.89
